sensor_id;sensor_type;location;lat;lon;timestamp;pressure;altitude;pressure_sealevel;temperature;humidity
49611;BME280;35515;48.766;9.176;2022-10-03T00:00:17;99145.69;;;12.16;100.00
49611;BME280;35515;48.766;9.176;2022-10-03T00:03:07;99154.06;;;12.14;100.00
49611;BME280;35515;48.766;9.176;2022-10-03T00:05:49;99162.81;;;12.16;100.00
49611;BME280;35515;48.766;9.176;2022-10-03T00:08:55;99170.34;;;12.14;100.00
49611;BME280;35515;48.766;9.176;2022-10-03T00:11:30;99168.00;;;12.11;100.00
49611;BME280;35515;48.766;9.176;2022-10-03T00:14:03;99169.84;;;12.04;100.00
49611;BME280;35515;48.766;9.176;2022-10-03T00:16:40;99186.56;;;12.01;100.00
49611;BME280;35515;48.766;9.176;2022-10-03T00:19:18;99193.69;;;12.09;100.00
49611;BME280;35515;48.766;9.176;2022-10-03T00:21:59;99192.84;;;12.08;100.00
49611;BME280;35515;48.766;9.176;2022-10-03T00:24:44;99198.69;;;12.05;100.00
49611;BME280;35515;48.766;9.176;2022-10-03T00:27:16;99193.25;;;12.05;100.00
49611;BME280;35515;48.766;9.176;2022-10-03T00:30:04;99196.56;;;12.00;100.00
49611;BME280;35515;48.766;9.176;2022-10-03T00:32:43;99201.66;;;12.10;100.00
49611;BME280;35515;48.766;9.176;2022-10-03T00:35:22;99190.97;;;12.09;100.00
49611;BME280;35515;48.766;9.176;2022-10-03T00:38:04;99207.88;;;12.04;100.00
49611;BME280;35515;48.766;9.176;2022-10-03T00:40:53;99199.13;;;12.09;100.00
49611;BME280;35515;48.766;9.176;2022-10-03T00:43:48;99206.28;;;12.16;100.00
49611;BME280;35515;48.766;9.176;2022-10-03T00:46:34;99212.16;;;12.20;100.00
49611;BME280;35515;48.766;9.176;2022-10-03T00:49:32;99227.19;;;12.16;100.00
49611;BME280;35515;48.766;9.176;2022-10-03T00:52:22;99223.25;;;11.97;100.00
49611;BME280;35515;48.766;9.176;2022-10-03T00:55:05;99217.06;;;12.03;100.00
49611;BME280;35515;48.766;9.176;2022-10-03T00:57:58;99211.22;;;12.06;100.00
49611;BME280;35515;48.766;9.176;2022-10-03T01:00:29;99203.88;;;12.00;100.00
49611;BME280;35515;48.766;9.176;2022-10-03T01:03:22;99211.56;;;11.96;100.00
49611;BME280;35515;48.766;9.176;2022-10-03T01:06:03;99213.31;;;12.04;100.00
49611;BME280;35515;48.766;9.176;2022-10-03T01:08:49;99214.47;;;11.95;100.00
49611;BME280;35515;48.766;9.176;2022-10-03T01:11:41;99218.88;;;11.96;100.00
49611;BME280;35515;48.766;9.176;2022-10-03T01:14:23;99217.00;;;11.96;100.00
49611;BME280;35515;48.766;9.176;2022-10-03T01:17:03;99212.78;;;11.94;100.00
49611;BME280;35515;48.766;9.176;2022-10-03T01:19:48;99212.78;;;11.94;100.00
49611;BME280;35515;48.766;9.176;2022-10-03T01:22:40;99204.69;;;12.00;100.00
49611;BME280;35515;48.766;9.176;2022-10-03T01:25:17;99209.06;;;11.95;100.00
49611;BME280;35515;48.766;9.176;2022-10-03T01:27:52;99209.22;;;11.93;100.00
49611;BME280;35515;48.766;9.176;2022-10-03T01:30:44;99212.91;;;12.07;100.00
49611;BME280;35515;48.766;9.176;2022-10-03T01:33:17;99205.66;;;12.14;100.00
49611;BME280;35515;48.766;9.176;2022-10-03T01:36:01;99202.84;;;12.01;100.00
49611;BME280;35515;48.766;9.176;2022-10-03T01:38:35;99206.59;;;12.00;100.00
49611;BME280;35515;48.766;9.176;2022-10-03T01:41:10;99218.28;;;12.00;100.00
49611;BME280;35515;48.766;9.176;2022-10-03T01:43:42;99216.50;;;11.93;100.00
49611;BME280;35515;48.766;9.176;2022-10-03T01:46:15;99211.78;;;11.95;100.00
49611;BME280;35515;48.766;9.176;2022-10-03T01:48:50;99223.50;;;12.02;100.00
49611;BME280;35515;48.766;9.176;2022-10-03T01:51:25;99221.78;;;11.94;100.00
49611;BME280;35515;48.766;9.176;2022-10-03T01:54:04;99232.81;;;11.93;100.00
49611;BME280;35515;48.766;9.176;2022-10-03T01:56:35;99229.81;;;12.02;100.00
49611;BME280;35515;48.766;9.176;2022-10-03T01:59:07;99245.91;;;12.04;100.00
49611;BME280;35515;48.766;9.176;2022-10-03T02:01:45;99251.19;;;11.91;100.00
49611;BME280;35515;48.766;9.176;2022-10-03T02:04:19;99243.94;;;11.98;100.00
49611;BME280;35515;48.766;9.176;2022-10-03T02:06:53;99259.88;;;12.01;100.00
49611;BME280;35515;48.766;9.176;2022-10-03T02:09:28;99266.75;;;12.03;100.00
49611;BME280;35515;48.766;9.176;2022-10-03T02:12:05;99261.16;;;12.05;100.00
49611;BME280;35515;48.766;9.176;2022-10-03T02:14:40;99264.56;;;11.92;100.00
49611;BME280;35515;48.766;9.176;2022-10-03T02:17:20;99264.09;;;11.88;100.00
49611;BME280;35515;48.766;9.176;2022-10-03T02:19:56;99259.97;;;11.93;100.00
49611;BME280;35515;48.766;9.176;2022-10-03T02:22:32;99266.63;;;11.90;100.00
49611;BME280;35515;48.766;9.176;2022-10-03T02:25:22;99266.06;;;11.95;100.00
49611;BME280;35515;48.766;9.176;2022-10-03T02:28:12;99265.78;;;11.90;100.00
49611;BME280;35515;48.766;9.176;2022-10-03T02:30:55;99267.47;;;11.91;100.00
49611;BME280;35515;48.766;9.176;2022-10-03T02:37:13;99267.97;;;11.79;100.00
49611;BME280;35515;48.766;9.176;2022-10-03T02:40:09;99262.75;;;11.78;100.00
49611;BME280;35515;48.766;9.176;2022-10-03T02:43:04;99261.13;;;11.83;100.00
49611;BME280;35515;48.766;9.176;2022-10-03T02:46:06;99258.88;;;11.87;100.00
49611;BME280;35515;48.766;9.176;2022-10-03T02:48:58;99265.66;;;11.76;100.00
49611;BME280;35515;48.766;9.176;2022-10-03T02:51:47;99262.28;;;11.74;100.00
49611;BME280;35515;48.766;9.176;2022-10-03T02:54:52;99254.31;;;11.87;100.00
49611;BME280;35515;48.766;9.176;2022-10-03T02:57:54;99249.91;;;11.86;100.00
49611;BME280;35515;48.766;9.176;2022-10-03T03:01:11;99252.56;;;11.80;100.00
49611;BME280;35515;48.766;9.176;2022-10-03T03:07:07;99246.00;;;11.74;100.00
49611;BME280;35515;48.766;9.176;2022-10-03T03:10:03;99251.44;;;11.74;100.00
49611;BME280;35515;48.766;9.176;2022-10-03T03:12:53;99253.44;;;11.65;100.00
49611;BME280;35515;48.766;9.176;2022-10-03T03:15:45;99238.00;;;11.66;100.00
49611;BME280;35515;48.766;9.176;2022-10-03T03:18:22;99249.88;;;11.65;100.00
49611;BME280;35515;48.766;9.176;2022-10-03T03:21:04;99244.59;;;11.57;100.00
49611;BME280;35515;48.766;9.176;2022-10-03T03:23:52;99250.34;;;11.68;100.00
49611;BME280;35515;48.766;9.176;2022-10-03T03:29:36;99242.13;;;11.83;100.00
49611;BME280;35515;48.766;9.176;2022-10-03T03:32:12;99241.03;;;11.78;100.00
49611;BME280;35515;48.766;9.176;2022-10-03T03:34:53;99244.59;;;11.78;100.00
49611;BME280;35515;48.766;9.176;2022-10-03T03:37:29;99241.50;;;11.81;100.00
49611;BME280;35515;48.766;9.176;2022-10-03T03:40:22;99240.41;;;11.76;100.00
49611;BME280;35515;48.766;9.176;2022-10-03T03:43:06;99246.00;;;11.74;100.00
49611;BME280;35515;48.766;9.176;2022-10-03T03:45:47;99242.84;;;11.70;100.00
49611;BME280;35515;48.766;9.176;2022-10-03T03:48:32;99250.53;;;11.67;100.00
49611;BME280;35515;48.766;9.176;2022-10-03T03:51:10;99250.47;;;11.60;100.00
49611;BME280;35515;48.766;9.176;2022-10-03T03:54:06;99253.00;;;11.62;100.00
49611;BME280;35515;48.766;9.176;2022-10-03T03:59:38;99257.00;;;11.44;100.00
49611;BME280;35515;48.766;9.176;2022-10-03T04:02:22;99249.38;;;11.33;100.00
49611;BME280;35515;48.766;9.176;2022-10-03T04:05:05;99266.59;;;11.25;100.00
49611;BME280;35515;48.766;9.176;2022-10-03T04:07:46;99253.94;;;11.32;100.00
49611;BME280;35515;48.766;9.176;2022-10-03T04:10:30;99262.81;;;11.41;100.00
49611;BME280;35515;48.766;9.176;2022-10-03T04:13:21;99264.47;;;11.42;100.00
49611;BME280;35515;48.766;9.176;2022-10-03T04:16:15;99264.47;;;11.42;100.00
49611;BME280;35515;48.766;9.176;2022-10-03T04:19:13;99268.78;;;11.36;100.00
49611;BME280;35515;48.766;9.176;2022-10-03T04:21:57;99269.31;;;11.25;100.00
49611;BME280;35515;48.766;9.176;2022-10-03T04:24:39;99259.03;;;11.42;100.00
49611;BME280;35515;48.766;9.176;2022-10-03T04:27:23;99271.44;;;11.30;100.00
49611;BME280;35515;48.766;9.176;2022-10-03T04:30:03;99269.81;;;11.35;100.00
49611;BME280;35515;48.766;9.176;2022-10-03T04:36:05;99270.53;;;11.23;100.00
49611;BME280;35515;48.766;9.176;2022-10-03T04:38:47;99268.28;;;11.11;100.00
49611;BME280;35515;48.766;9.176;2022-10-03T04:41:26;99273.28;;;11.08;100.00
49611;BME280;35515;48.766;9.176;2022-10-03T04:44:02;99276.53;;;11.03;100.00
49611;BME280;35515;48.766;9.176;2022-10-03T04:46:42;99278.78;;;11.14;100.00
49611;BME280;35515;48.766;9.176;2022-10-03T04:49:17;99285.09;;;11.21;100.00
49611;BME280;35515;48.766;9.176;2022-10-03T04:51:53;99279.66;;;11.36;100.00
49611;BME280;35515;48.766;9.176;2022-10-03T04:54:27;99285.72;;;11.38;100.00
49611;BME280;35515;48.766;9.176;2022-10-03T04:57:01;99286.41;;;11.26;100.00
49611;BME280;35515;48.766;9.176;2022-10-03T04:59:37;99290.69;;;11.35;100.00
49611;BME280;35515;48.766;9.176;2022-10-03T05:02:15;99285.94;;;11.37;100.00
49611;BME280;35515;48.766;9.176;2022-10-03T05:04:57;99292.38;;;11.36;100.00
49611;BME280;35515;48.766;9.176;2022-10-03T05:07:37;99297.22;;;11.41;100.00
49611;BME280;35515;48.766;9.176;2022-10-03T05:10:22;99291.88;;;11.47;100.00
49611;BME280;35515;48.766;9.176;2022-10-03T05:12:58;99288.78;;;11.50;100.00
49611;BME280;35515;48.766;9.176;2022-10-03T05:15:30;99289.34;;;11.46;100.00
49611;BME280;35515;48.766;9.176;2022-10-03T05:18:10;99295.72;;;11.38;100.00
49611;BME280;35515;48.766;9.176;2022-10-03T05:20:50;99288.50;;;11.24;100.00
49611;BME280;35515;48.766;9.176;2022-10-03T05:23:37;99301.31;;;11.15;100.00
49611;BME280;35515;48.766;9.176;2022-10-03T05:26:15;99295.38;;;11.26;100.00
49611;BME280;35515;48.766;9.176;2022-10-03T05:28:49;99291.84;;;11.26;100.00
49611;BME280;35515;48.766;9.176;2022-10-03T05:31:28;99298.88;;;11.20;100.00
49611;BME280;35515;48.766;9.176;2022-10-03T05:34:02;99306.72;;;11.15;100.00
49611;BME280;35515;48.766;9.176;2022-10-03T05:36:44;99308.34;;;11.09;100.00
49611;BME280;35515;48.766;9.176;2022-10-03T05:39:29;99310.94;;;11.17;100.00
49611;BME280;35515;48.766;9.176;2022-10-03T05:42:12;99311.84;;;11.25;100.00
49611;BME280;35515;48.766;9.176;2022-10-03T05:44:54;99321.78;;;11.17;100.00
49611;BME280;35515;48.766;9.176;2022-10-03T05:47:27;99329.63;;;11.12;100.00
49611;BME280;35515;48.766;9.176;2022-10-03T05:56:07;99343.88;;;11.14;100.00
49611;BME280;35515;48.766;9.176;2022-10-03T05:58:52;99353.22;;;11.12;100.00
49611;BME280;35515;48.766;9.176;2022-10-03T06:01:45;99354.44;;;11.09;100.00
49611;BME280;35515;48.766;9.176;2022-10-03T06:04:54;99348.72;;;11.19;100.00
49611;BME280;35515;48.766;9.176;2022-10-03T06:07:28;99343.88;;;11.14;100.00
49611;BME280;35515;48.766;9.176;2022-10-03T06:10:17;99351.50;;;11.26;100.00
49611;BME280;35515;48.766;9.176;2022-10-03T06:13:03;99356.81;;;11.34;100.00
49611;BME280;35515;48.766;9.176;2022-10-03T06:15:40;99360.31;;;11.28;100.00
49611;BME280;35515;48.766;9.176;2022-10-03T06:18:30;99359.44;;;11.27;100.00
49611;BME280;35515;48.766;9.176;2022-10-03T06:27:18;99367.59;;;11.27;100.00
49611;BME280;35515;48.766;9.176;2022-10-03T06:30:06;99367.47;;;11.35;100.00
49611;BME280;35515;48.766;9.176;2022-10-03T06:33:15;99367.69;;;11.34;100.00
49611;BME280;35515;48.766;9.176;2022-10-03T06:36:18;99367.56;;;11.42;100.00
49611;BME280;35515;48.766;9.176;2022-10-03T06:39:25;99367.31;;;11.37;100.00
49611;BME280;35515;48.766;9.176;2022-10-03T06:48:38;99384.22;;;11.39;100.00
49611;BME280;35515;48.766;9.176;2022-10-03T06:58:00;99388.53;;;11.48;100.00
49611;BME280;35515;48.766;9.176;2022-10-03T07:00:46;99387.31;;;11.51;100.00
49611;BME280;35515;48.766;9.176;2022-10-03T07:03:48;99378.22;;;11.59;100.00
49611;BME280;35515;48.766;9.176;2022-10-03T07:06:36;99378.50;;;11.49;100.00
49611;BME280;35515;48.766;9.176;2022-10-03T07:15:39;99400.41;;;11.62;100.00
49611;BME280;35515;48.766;9.176;2022-10-03T07:21:44;99410.22;;;11.48;100.00
49611;BME280;35515;48.766;9.176;2022-10-03T07:24:31;99406.50;;;11.49;100.00
49611;BME280;35515;48.766;9.176;2022-10-03T07:27:17;99407.53;;;11.48;100.00
49611;BME280;35515;48.766;9.176;2022-10-03T07:30:05;99414.34;;;11.44;100.00
49611;BME280;35515;48.766;9.176;2022-10-03T07:33:09;99411.38;;;11.39;100.00
49611;BME280;35515;48.766;9.176;2022-10-03T07:35:52;99416.78;;;11.39;100.00
49611;BME280;35515;48.766;9.176;2022-10-03T07:39:28;99426.22;;;11.43;100.00
49611;BME280;35515;48.766;9.176;2022-10-03T07:45:21;99418.47;;;11.55;100.00
49611;BME280;35515;48.766;9.176;2022-10-03T07:51:05;99412.00;;;11.56;100.00
49611;BME280;35515;48.766;9.176;2022-10-03T07:54:11;99413.41;;;11.52;100.00
49611;BME280;35515;48.766;9.176;2022-10-03T07:57:14;99418.16;;;11.65;100.00
49611;BME280;35515;48.766;9.176;2022-10-03T08:00:20;99419.56;;;11.61;100.00
49611;BME280;35515;48.766;9.176;2022-10-03T08:06:19;99416.97;;;11.52;100.00
49611;BME280;35515;48.766;9.176;2022-10-03T08:09:27;99428.50;;;11.54;100.00
49611;BME280;35515;48.766;9.176;2022-10-03T08:12:44;99426.97;;;11.67;100.00
49611;BME280;35515;48.766;9.176;2022-10-03T08:15:29;99436.03;;;11.74;100.00
49611;BME280;35515;48.766;9.176;2022-10-03T08:18:41;99436.41;;;11.71;100.00
49611;BME280;35515;48.766;9.176;2022-10-03T08:21:17;99444.09;;;11.82;100.00
49611;BME280;35515;48.766;9.176;2022-10-03T08:24:11;99440.22;;;11.77;100.00
49611;BME280;35515;48.766;9.176;2022-10-03T08:26:57;99446.25;;;11.72;100.00
49611;BME280;35515;48.766;9.176;2022-10-03T08:29:45;99444.25;;;11.81;100.00
49611;BME280;35515;48.766;9.176;2022-10-03T08:32:55;99441.66;;;11.87;100.00
49611;BME280;35515;48.766;9.176;2022-10-03T08:38:32;99440.31;;;11.83;100.00
49611;BME280;35515;48.766;9.176;2022-10-03T08:41:36;99440.81;;;11.72;100.00
49611;BME280;35515;48.766;9.176;2022-10-03T08:44:36;99441.44;;;11.74;100.00
49611;BME280;35515;48.766;9.176;2022-10-03T08:47:19;99455.69;;;11.76;100.00
49611;BME280;35515;48.766;9.176;2022-10-03T08:50:06;99444.16;;;11.74;100.00
49611;BME280;35515;48.766;9.176;2022-10-03T08:52:56;99436.28;;;11.79;100.00
49611;BME280;35515;48.766;9.176;2022-10-03T08:58:16;99437.44;;;11.85;100.00
49611;BME280;35515;48.766;9.176;2022-10-03T09:01:21;99433.22;;;11.82;100.00
49611;BME280;35515;48.766;9.176;2022-10-03T09:04:09;99444.09;;;11.82;100.00
49611;BME280;35515;48.766;9.176;2022-10-03T09:07:00;99446.69;;;11.91;100.00
49611;BME280;35515;48.766;9.176;2022-10-03T09:13:12;99444.44;;;12.09;100.00
49611;BME280;35515;48.766;9.176;2022-10-03T09:19:01;99441.03;;;12.07;100.00
49611;BME280;35515;48.766;9.176;2022-10-03T09:21:58;99435.25;;;12.10;100.00
49611;BME280;35515;48.766;9.176;2022-10-03T09:27:38;99434.47;;;12.16;100.00
49611;BME280;35515;48.766;9.176;2022-10-03T09:30:35;99434.94;;;12.20;100.00
49611;BME280;35515;48.766;9.176;2022-10-03T09:33:41;99433.44;;;12.39;95.80
49611;BME280;35515;48.766;9.176;2022-10-03T09:36:35;99433.97;;;12.28;95.85
49611;BME280;35515;48.766;9.176;2022-10-03T09:39:46;99434.53;;;12.23;99.15
49611;BME280;35515;48.766;9.176;2022-10-03T09:45:36;99429.03;;;12.16;97.18
49611;BME280;35515;48.766;9.176;2022-10-03T09:48:31;99419.78;;;12.11;95.95
49611;BME280;35515;48.766;9.176;2022-10-03T09:51:15;99427.34;;;12.15;97.00
49611;BME280;35515;48.766;9.176;2022-10-03T09:57:10;99418.69;;;12.27;95.33
49611;BME280;35515;48.766;9.176;2022-10-03T10:00:05;99419.72;;;12.26;93.57
49611;BME280;35515;48.766;9.176;2022-10-03T10:09:20;99415.22;;;12.33;91.05
49611;BME280;35515;48.766;9.176;2022-10-03T10:12:02;99427.31;;;12.30;91.51
49611;BME280;35515;48.766;9.176;2022-10-03T10:14:47;99418.28;;;12.30;91.97
49611;BME280;35515;48.766;9.176;2022-10-03T10:20:49;99423.66;;;12.45;90.42
49611;BME280;35515;48.766;9.176;2022-10-03T10:23:37;99422.31;;;12.56;89.75
49611;BME280;35515;48.766;9.176;2022-10-03T10:26:42;99423.97;;;12.57;90.02
49611;BME280;35515;48.766;9.176;2022-10-03T10:29:39;99428.63;;;12.63;88.30
49611;BME280;35515;48.766;9.176;2022-10-03T10:38:33;99432.19;;;12.63;88.14
49611;BME280;35515;48.766;9.176;2022-10-03T10:41:40;99434.44;;;12.81;90.05
49611;BME280;35515;48.766;9.176;2022-10-03T10:47:46;99435.78;;;12.64;85.31
49611;BME280;35515;48.766;9.176;2022-10-03T10:50:47;99434.59;;;12.73;85.87
49611;BME280;35515;48.766;9.176;2022-10-03T10:56:50;99435.47;;;12.80;85.15
49611;BME280;35515;48.766;9.176;2022-10-03T11:09:23;99418.38;;;12.86;86.08
49611;BME280;35515;48.766;9.176;2022-10-03T11:12:33;99414.38;;;12.82;85.65
49611;BME280;35515;48.766;9.176;2022-10-03T11:18:35;99412.25;;;12.78;85.77
49611;BME280;35515;48.766;9.176;2022-10-03T11:30:30;99414.53;;;13.02;83.28
49611;BME280;35515;48.766;9.176;2022-10-03T11:34:00;99406.00;;;13.12;82.02
49611;BME280;35515;48.766;9.176;2022-10-03T11:37:02;99412.56;;;13.25;81.27
49611;BME280;35515;48.766;9.176;2022-10-03T11:39:39;99410.50;;;13.27;79.63
49611;BME280;35515;48.766;9.176;2022-10-03T11:42:20;99414.16;;;13.12;80.75
49611;BME280;35515;48.766;9.176;2022-10-03T11:44:55;99421.56;;;13.25;80.49
49611;BME280;35515;48.766;9.176;2022-10-03T11:47:41;99416.84;;;13.05;79.01
49611;BME280;35515;48.766;9.176;2022-10-03T11:50:26;99407.97;;;12.97;80.09
49611;BME280;35515;48.766;9.176;2022-10-03T11:53:06;99403.59;;;12.96;81.49
49611;BME280;35515;48.766;9.176;2022-10-03T11:55:39;99400.88;;;12.96;81.48
49611;BME280;35515;48.766;9.176;2022-10-03T11:58:20;99404.22;;;12.98;83.10
49611;BME280;35515;48.766;9.176;2022-10-03T12:00:57;99397.53;;;13.00;82.08
49611;BME280;35515;48.766;9.176;2022-10-03T12:03:29;99401.78;;;13.10;77.00
49611;BME280;35515;48.766;9.176;2022-10-03T12:06:00;99398.25;;;13.09;75.47
49611;BME280;35515;48.766;9.176;2022-10-03T12:08:56;99399.94;;;13.10;74.81
49611;BME280;35515;48.766;9.176;2022-10-03T12:11:32;99393.34;;;13.26;75.27
49611;BME280;35515;48.766;9.176;2022-10-03T12:14:20;99390.63;;;13.26;72.70
49611;BME280;35515;48.766;9.176;2022-10-03T12:17:03;99392.47;;;13.26;72.44
49611;BME280;35515;48.766;9.176;2022-10-03T12:19:37;99388.09;;;13.31;73.16
49611;BME280;35515;48.766;9.176;2022-10-03T12:22:16;99380.47;;;13.48;70.46
49611;BME280;35515;48.766;9.176;2022-10-03T12:25:17;99379.94;;;13.66;70.45
49611;BME280;35515;48.766;9.176;2022-10-03T12:27:56;99379.13;;;13.79;67.91
49611;BME280;35515;48.766;9.176;2022-10-03T12:30:27;99368.22;;;13.79;68.76
49611;BME280;35515;48.766;9.176;2022-10-03T12:33:11;99362.16;;;13.77;71.01
49611;BME280;35515;48.766;9.176;2022-10-03T12:35:49;99347.72;;;13.90;69.37
49611;BME280;35515;48.766;9.176;2022-10-03T12:38:31;99365.13;;;13.82;69.27
49611;BME280;35515;48.766;9.176;2022-10-03T12:41:13;99367.44;;;13.99;69.28
49611;BME280;35515;48.766;9.176;2022-10-03T12:43:55;99363.47;;;13.95;69.69
49611;BME280;35515;48.766;9.176;2022-10-03T12:46:35;99363.25;;;13.90;69.81
49611;BME280;35515;48.766;9.176;2022-10-03T12:49:09;99357.34;;;13.79;70.01
49611;BME280;35515;48.766;9.176;2022-10-03T12:51:50;99360.28;;;13.78;70.01
49611;BME280;35515;48.766;9.176;2022-10-03T12:54:33;99357.72;;;13.63;71.03
49611;BME280;35515;48.766;9.176;2022-10-03T12:57:21;99345.59;;;13.72;70.98
49611;BME280;35515;48.766;9.176;2022-10-03T12:59:58;99346.84;;;13.69;70.14
49611;BME280;35515;48.766;9.176;2022-10-03T13:02:29;99349.78;;;13.68;70.30
49611;BME280;35515;48.766;9.176;2022-10-03T13:05:26;99346.66;;;13.78;69.92
49611;BME280;35515;48.766;9.176;2022-10-03T13:07:59;99337.66;;;13.77;69.47
49611;BME280;35515;48.766;9.176;2022-10-03T13:10:36;99336.78;;;13.77;70.74
49611;BME280;35515;48.766;9.176;2022-10-03T13:13:21;99341.66;;;13.95;67.69
49611;BME280;35515;48.766;9.176;2022-10-03T13:16:14;99333.31;;;14.23;66.65
49611;BME280;35515;48.766;9.176;2022-10-03T13:18:51;99334.78;;;14.26;66.00
49611;BME280;35515;48.766;9.176;2022-10-03T13:21:28;99332.06;;;14.12;67.04
49611;BME280;35515;48.766;9.176;2022-10-03T13:24:03;99328.06;;;14.08;67.06
49611;BME280;35515;48.766;9.176;2022-10-03T13:26:49;99336.25;;;14.08;67.89
49611;BME280;35515;48.766;9.176;2022-10-03T13:29:23;99327.03;;;14.09;68.19
49611;BME280;35515;48.766;9.176;2022-10-03T13:32:10;99336.25;;;14.08;67.58
49611;BME280;35515;48.766;9.176;2022-10-03T13:34:54;99333.94;;;14.05;67.92
49611;BME280;35515;48.766;9.176;2022-10-03T13:37:30;99324.91;;;14.11;67.75
49611;BME280;35515;48.766;9.176;2022-10-03T13:40:04;99329.13;;;14.14;67.50
49611;BME280;35515;48.766;9.176;2022-10-03T13:42:36;99330.81;;;14.35;66.03
49611;BME280;35515;48.766;9.176;2022-10-03T13:45:10;99326.81;;;14.17;66.55
49611;BME280;35515;48.766;9.176;2022-10-03T13:47:43;99329.09;;;14.07;67.03
49611;BME280;35515;48.766;9.176;2022-10-03T13:50:15;99339.38;;;13.98;66.69
49611;BME280;35515;48.766;9.176;2022-10-03T13:52:47;99327.00;;;13.96;67.27
49611;BME280;35515;48.766;9.176;2022-10-03T13:55:32;99324.91;;;13.98;66.49
49611;BME280;35515;48.766;9.176;2022-10-03T13:58:16;99334.31;;;13.88;65.96
49611;BME280;35515;48.766;9.176;2022-10-03T14:00:58;99322.19;;;13.98;65.73
49611;BME280;35515;48.766;9.176;2022-10-03T14:03:30;99320.91;;;13.87;66.69
49611;BME280;35515;48.766;9.176;2022-10-03T14:06:10;99318.84;;;13.96;65.45
49611;BME280;35515;48.766;9.176;2022-10-03T14:09:16;99322.59;;;13.95;65.24
49611;BME280;35515;48.766;9.176;2022-10-03T14:11:55;99319.66;;;13.90;66.43
49611;BME280;35515;48.766;9.176;2022-10-03T14:14:33;99316.94;;;13.90;66.19
49611;BME280;35515;48.766;9.176;2022-10-03T14:17:07;99317.16;;;13.95;65.77
49611;BME280;35515;48.766;9.176;2022-10-03T14:19:45;99303.97;;;13.98;66.43
49611;BME280;35515;48.766;9.176;2022-10-03T14:22:26;99307.09;;;14.09;65.71
49611;BME280;35515;48.766;9.176;2022-10-03T14:25:18;99305.63;;;14.13;65.30
49611;BME280;35515;48.766;9.176;2022-10-03T14:27:51;99302.50;;;14.16;65.00
49611;BME280;35515;48.766;9.176;2022-10-03T14:30:20;99297.06;;;14.29;63.90
49611;BME280;35515;48.766;9.176;2022-10-03T14:32:58;99293.09;;;14.18;63.92
49611;BME280;35515;48.766;9.176;2022-10-03T14:35:37;99294.56;;;14.14;64.62
49611;BME280;35515;48.766;9.176;2022-10-03T14:38:14;99301.47;;;14.24;63.52
49611;BME280;35515;48.766;9.176;2022-10-03T14:40:47;99292.03;;;14.26;63.40
49611;BME280;35515;48.766;9.176;2022-10-03T14:43:29;99294.75;;;14.19;63.40
49611;BME280;35515;48.766;9.176;2022-10-03T14:46:00;99286.38;;;14.21;62.96
49611;BME280;35515;48.766;9.176;2022-10-03T14:48:30;99297.06;;;14.23;63.02
49611;BME280;35515;48.766;9.176;2022-10-03T14:51:08;99291.41;;;14.31;62.60
49611;BME280;35515;48.766;9.176;2022-10-03T14:53:36;99287.00;;;14.23;63.16
49611;BME280;35515;48.766;9.176;2022-10-03T14:58:35;99275.03;;;14.17;63.78
49611;BME280;35515;48.766;9.176;2022-10-03T15:01:09;99278.19;;;14.21;63.46
49611;BME280;35515;48.766;9.176;2022-10-03T15:03:39;99280.72;;;14.16;63.94
49611;BME280;35515;48.766;9.176;2022-10-03T15:09:21;99274.84;;;14.12;64.49
49611;BME280;35515;48.766;9.176;2022-10-03T15:11:52;99279.47;;;14.18;64.45
49611;BME280;35515;48.766;9.176;2022-10-03T15:17:55;99280.72;;;14.29;62.78
49611;BME280;35515;48.766;9.176;2022-10-03T15:20:25;99278.19;;;14.41;61.97
49611;BME280;35515;48.766;9.176;2022-10-03T15:22:56;99269.38;;;14.26;62.04
49611;BME280;35515;48.766;9.176;2022-10-03T15:25:26;99275.69;;;14.19;63.10
49611;BME280;35515;48.766;9.176;2022-10-03T15:27:56;99275.69;;;14.33;62.08
49611;BME280;35515;48.766;9.176;2022-10-03T15:30:27;99271.06;;;14.27;62.72
49611;BME280;35515;48.766;9.176;2022-10-03T15:33:05;99274.00;;;14.25;62.44
49611;BME280;35515;48.766;9.176;2022-10-03T15:35:38;99271.50;;;14.24;63.10
49611;BME280;35515;48.766;9.176;2022-10-03T15:38:10;99268.94;;;14.22;63.07
49611;BME280;35515;48.766;9.176;2022-10-03T15:40:40;99266.44;;;14.27;63.33
49611;BME280;35515;48.766;9.176;2022-10-03T15:43:27;99270.22;;;14.33;62.30
49611;BME280;35515;48.766;9.176;2022-10-03T15:45:58;99274.63;;;14.34;62.38
49611;BME280;35515;48.766;9.176;2022-10-03T15:48:29;99262.47;;;14.30;62.63
49611;BME280;35515;48.766;9.176;2022-10-03T15:50:56;99261.84;;;14.28;63.52
49611;BME280;35515;48.766;9.176;2022-10-03T15:53:25;99266.03;;;14.24;62.85
49611;BME280;35515;48.766;9.176;2022-10-03T15:55:55;99262.69;;;14.21;63.29
49611;BME280;35515;48.766;9.176;2022-10-03T15:58:25;99264.34;;;14.29;62.07
49611;BME280;35515;48.766;9.176;2022-10-03T16:01:01;99268.75;;;14.37;61.29
49611;BME280;35515;48.766;9.176;2022-10-03T16:03:39;99271.28;;;14.32;61.91
49611;BME280;35515;48.766;9.176;2022-10-03T16:06:09;99272.31;;;14.31;61.79
49611;BME280;35515;48.766;9.176;2022-10-03T16:08:46;99256.78;;;14.38;63.75
49611;BME280;35515;48.766;9.176;2022-10-03T16:11:21;99264.78;;;14.33;61.42
49611;BME280;35515;48.766;9.176;2022-10-03T16:14:00;99270.63;;;14.30;60.96
49611;BME280;35515;48.766;9.176;2022-10-03T16:16:35;99272.31;;;14.17;62.41
49611;BME280;35515;48.766;9.176;2022-10-03T16:19:20;99272.97;;;14.19;62.47
49611;BME280;35515;48.766;9.176;2022-10-03T16:21:54;99262.25;;;14.18;62.17
49611;BME280;35515;48.766;9.176;2022-10-03T16:24:31;99260.16;;;14.20;62.09
49611;BME280;35515;48.766;9.176;2022-10-03T16:27:13;99268.13;;;14.21;61.32
49611;BME280;35515;48.766;9.176;2022-10-03T16:29:45;99257.66;;;14.12;62.34
49611;BME280;35515;48.766;9.176;2022-10-03T16:32:17;99254.28;;;14.10;63.41
49611;BME280;35515;48.766;9.176;2022-10-03T16:34:47;99253.03;;;14.12;63.58